createdAt,value
2022-08-04T00:02:52.382Z,25.00
2022-08-04T00:06:02.566Z,24.80
2022-08-04T00:09:12.102Z,24.80
2022-08-04T00:12:15.517Z,24.90
2022-08-04T00:15:17.697Z,24.60
2022-08-04T00:18:22.717Z,24.60
2022-08-04T00:21:26.144Z,24.80
2022-08-04T00:24:30.246Z,24.60
2022-08-04T00:27:32.550Z,24.70
2022-08-04T00:30:40.805Z,24.70
2022-08-04T00:33:45.094Z,24.70
2022-08-04T00:36:47.322Z,24.70
2022-08-04T00:39:50.513Z,24.70
2022-08-04T00:43:05.652Z,24.70
2022-08-04T00:46:31.775Z,24.80
2022-08-04T00:49:53.866Z,24.70
2022-08-04T00:53:07.351Z,24.80
2022-08-04T00:56:27.512Z,24.80
2022-08-04T00:59:44.561Z,24.80
2022-08-04T01:03:06.669Z,24.70
2022-08-04T01:06:18.009Z,24.70
2022-08-04T01:09:30.850Z,24.70
2022-08-04T01:12:50.899Z,24.90
2022-08-04T01:16:01.059Z,24.70
2022-08-04T01:19:16.990Z,24.80
2022-08-04T01:22:46.787Z,24.80
2022-08-04T01:26:41.950Z,24.80
2022-08-04T01:29:46.747Z,24.80
2022-08-04T01:32:54.948Z,24.80
2022-08-04T01:36:00.277Z,24.90
2022-08-04T01:39:24.220Z,24.80
2022-08-04T01:42:32.072Z,24.80
2022-08-04T01:45:37.336Z,24.90
2022-08-04T01:48:39.984Z,24.70
2022-08-04T01:51:45.871Z,24.90
2022-08-04T01:54:48.966Z,24.90
2022-08-04T01:57:55.526Z,24.90
2022-08-04T02:01:01.613Z,24.80
2022-08-04T02:04:20.035Z,24.90
2022-08-04T02:07:36.958Z,24.80
2022-08-04T02:10:56.663Z,24.80
2022-08-04T02:14:02.246Z,24.80
2022-08-04T02:17:10.410Z,24.80
2022-08-04T02:20:18.727Z,24.90
2022-08-04T02:23:29.702Z,24.90
2022-08-04T02:26:33.492Z,24.80
2022-08-04T02:29:45.632Z,24.70
2022-08-04T02:32:52.240Z,24.90
2022-08-04T02:36:02.366Z,24.80
2022-08-04T02:39:05.681Z,24.80
2022-08-04T02:42:09.960Z,24.70
2022-08-04T02:45:12.359Z,24.70
2022-08-04T02:48:31.029Z,24.70
2022-08-04T02:51:35.369Z,24.80
2022-08-04T02:54:39.921Z,24.70
2022-08-04T02:57:44.599Z,24.80
2022-08-04T03:00:47.878Z,24.80
2022-08-04T03:04:02.298Z,24.80
2022-08-04T03:07:26.847Z,24.90
2022-08-04T03:10:57.613Z,24.70
2022-08-04T03:14:29.835Z,24.70
2022-08-04T03:17:55.666Z,24.80
2022-08-04T03:21:22.716Z,24.70
2022-08-04T03:24:56.195Z,24.70
2022-08-04T03:28:22.246Z,24.80
2022-08-04T03:31:45.416Z,24.70
2022-08-04T03:35:03.334Z,24.80
2022-08-04T03:38:23.551Z,24.70
2022-08-04T03:41:51.292Z,24.70
2022-08-04T03:45:35.353Z,24.90
2022-08-04T03:49:01.704Z,24.80
2022-08-04T03:52:26.339Z,24.80
2022-08-04T03:55:46.102Z,24.80
2022-08-04T03:59:09.164Z,24.70
2022-08-04T04:02:39.159Z,24.80
2022-08-04T04:06:03.581Z,24.70
2022-08-04T04:09:28.737Z,24.80
2022-08-04T04:13:10.373Z,24.70
2022-08-04T04:16:31.524Z,24.70
2022-08-04T04:19:49.619Z,24.70
2022-08-04T04:23:05.360Z,24.90
2022-08-04T04:26:40.218Z,24.70
2022-08-04T04:30:00.620Z,24.70
2022-08-04T04:33:18.718Z,24.70
2022-08-04T04:36:29.467Z,24.60
2022-08-04T04:39:40.542Z,24.90
2022-08-04T04:42:54.997Z,24.70
2022-08-04T04:46:06.156Z,24.90
2022-08-04T04:49:25.247Z,24.70
2022-08-04T04:52:34.047Z,24.70
2022-08-04T04:55:47.949Z,24.80
2022-08-04T04:58:52.168Z,24.70
2022-08-04T05:02:18.379Z,24.70
2022-08-04T05:05:35.925Z,24.70
2022-08-04T05:08:57.367Z,24.60
2022-08-04T05:14:32.932Z,24.50
2022-08-04T05:15:36.885Z,24.60
2022-08-04T05:18:41.466Z,24.60
2022-08-04T05:21:48.659Z,24.60
2022-08-04T05:25:01.212Z,24.70
2022-08-04T05:28:06.354Z,24.70
2022-08-04T05:31:13.213Z,24.70
2022-08-04T05:34:22.281Z,24.70
2022-08-04T05:37:28.341Z,24.60
2022-08-04T05:40:32.641Z,24.60
2022-08-04T05:43:35.601Z,24.80
2022-08-04T05:46:37.516Z,24.70
2022-08-04T05:49:40.642Z,24.70
2022-08-04T05:52:46.660Z,24.70
2022-08-04T05:55:59.174Z,24.70
2022-08-04T05:59:03.748Z,24.70
2022-08-04T06:02:07.552Z,24.70
2022-08-04T06:05:13.839Z,24.60
2022-08-04T06:08:16.133Z,24.60
2022-08-04T06:11:19.984Z,24.70
2022-08-04T06:14:23.528Z,24.70
2022-08-04T06:19:58.439Z,24.70
2022-08-04T06:20:53.865Z,24.70
2022-08-04T06:24:04.491Z,24.60
2022-08-04T06:27:07.517Z,24.60
2022-08-04T06:30:13.516Z,24.70
2022-08-04T06:33:24.009Z,24.80
2022-08-04T06:36:25.708Z,24.70
2022-08-04T06:39:30.083Z,24.80
2022-08-04T06:42:36.676Z,24.80
2022-08-04T06:45:40.718Z,24.70
2022-08-04T06:48:43.344Z,24.80
2022-08-04T06:51:49.198Z,24.80
2022-08-04T06:54:53.219Z,24.90
2022-08-04T06:57:58.452Z,24.80
2022-08-04T07:01:05.403Z,24.90
2022-08-04T07:04:07.343Z,24.90
2022-08-04T07:07:09.516Z,24.90
2022-08-04T07:10:12.413Z,24.90
2022-08-04T07:13:22.893Z,24.70
2022-08-04T07:16:30.792Z,24.90
2022-08-04T07:19:33.062Z,24.90
2022-08-04T07:22:35.482Z,25.00
2022-08-04T07:25:59.492Z,25.00
2022-08-04T07:29:00.170Z,25.00
2022-08-04T07:32:03.631Z,25.00
2022-08-04T07:35:06.654Z,25.10
2022-08-04T07:38:11.029Z,25.10
2022-08-04T07:44:40.279Z,25.20
2022-08-04T07:48:05.022Z,25.20
2022-08-04T07:51:05.673Z,25.20
2022-08-04T07:54:10.078Z,25.30
2022-08-04T07:57:19.454Z,25.20
2022-08-04T08:00:33.967Z,25.20
2022-08-04T08:03:36.791Z,25.20
2022-08-04T08:06:43.193Z,25.20
2022-08-04T08:09:45.050Z,25.20
2022-08-04T08:12:51.284Z,25.30
2022-08-04T08:15:54.179Z,25.30
2022-08-04T08:18:55.848Z,25.30
2022-08-04T08:21:59.266Z,25.30
2022-08-04T08:25:01.985Z,25.30
2022-08-04T08:28:06.056Z,25.30
2022-08-04T08:31:07.627Z,25.40
2022-08-04T08:34:10.787Z,25.30
2022-08-04T08:37:18.343Z,25.40
2022-08-04T08:40:39.261Z,25.40
2022-08-04T08:44:05.592Z,25.50
2022-08-04T08:47:23.336Z,25.40
2022-08-04T08:50:49.952Z,25.50
2022-08-04T08:54:08.052Z,25.40
2022-08-04T08:57:27.098Z,25.40
2022-08-04T09:00:45.932Z,25.40
2022-08-04T09:04:08.302Z,25.40
2022-08-04T09:07:27.433Z,25.40
2022-08-04T09:10:39.245Z,25.40
2022-08-04T09:13:45.301Z,25.50
2022-08-04T09:16:53.750Z,25.40
2022-08-04T09:20:01.866Z,25.30
2022-08-04T09:23:15.880Z,25.40
2022-08-04T09:26:24.798Z,25.40
2022-08-04T09:29:35.981Z,25.50
2022-08-04T09:32:47.139Z,25.60
2022-08-04T09:35:56.868Z,25.60
2022-08-04T09:39:08.762Z,25.60
2022-08-04T09:42:22.527Z,25.60
2022-08-04T09:45:42.548Z,25.60
2022-08-04T09:48:54.836Z,25.60
2022-08-04T09:52:06.412Z,25.50
2022-08-04T09:55:19.239Z,25.60
2022-08-04T09:58:31.176Z,25.70
2022-08-04T10:01:34.644Z,25.50
2022-08-04T10:04:40.164Z,25.60
2022-08-04T10:07:59.552Z,25.60
2022-08-04T10:11:32.645Z,25.60
2022-08-04T10:14:45.385Z,25.50
2022-08-04T10:18:10.645Z,25.60
2022-08-04T10:21:26.447Z,25.60
2022-08-04T10:24:38.894Z,25.60
2022-08-04T10:27:45.432Z,25.70
2022-08-04T10:30:51.303Z,25.60
2022-08-04T10:33:59.970Z,25.80
2022-08-04T10:37:17.022Z,25.70
2022-08-04T10:40:36.354Z,25.70
2022-08-04T10:43:47.828Z,25.60
2022-08-04T10:46:53.901Z,25.70
2022-08-04T10:49:59.822Z,25.70
2022-08-04T10:53:09.651Z,25.70
2022-08-04T10:56:21.814Z,25.70
2022-08-04T10:59:29.370Z,25.60
2022-08-04T11:02:39.789Z,25.60
2022-08-04T11:05:46.038Z,25.60
2022-08-04T11:08:54.306Z,25.50
2022-08-04T11:12:02.872Z,26.40
2022-08-04T11:15:08.880Z,25.60
2022-08-04T11:18:16.154Z,25.50
2022-08-04T11:21:21.359Z,25.50
2022-08-04T11:24:36.610Z,25.50
2022-08-04T11:27:46.595Z,25.50
2022-08-04T11:30:54.786Z,25.60
2022-08-04T11:34:01.356Z,25.50
2022-08-04T11:37:14.340Z,25.50
2022-08-04T11:40:25.375Z,25.50
2022-08-04T11:44:02.893Z,25.50
2022-08-04T11:47:02.554Z,25.50
2022-08-04T11:50:10.638Z,25.50
2022-08-04T11:53:18.469Z,25.60
2022-08-04T11:56:36.669Z,25.50
2022-08-04T11:59:40.638Z,25.50
2022-08-04T12:02:59.656Z,25.50
2022-08-04T12:06:12.094Z,25.50
2022-08-04T12:09:22.256Z,25.50
2022-08-04T12:12:30.333Z,25.50
2022-08-04T12:15:38.273Z,25.60
2022-08-04T12:18:45.051Z,25.50
2022-08-04T12:21:55.698Z,25.50
2022-08-04T12:25:02.413Z,25.60
2022-08-04T12:28:16.061Z,25.60
2022-08-04T12:31:21.010Z,25.60
2022-08-04T12:34:34.970Z,25.60
2022-08-04T12:37:47.916Z,25.50
2022-08-04T12:40:51.170Z,25.50
2022-08-04T12:43:54.990Z,25.60
2022-08-04T12:47:27.131Z,25.50
2022-08-04T12:50:21.498Z,25.50
2022-08-04T12:53:31.898Z,25.40
2022-08-04T12:56:35.547Z,25.50
2022-08-04T12:59:39.649Z,25.50
2022-08-04T13:02:46.238Z,25.40
2022-08-04T13:05:52.498Z,25.50
2022-08-04T13:08:55.386Z,25.50
2022-08-04T13:12:01.998Z,25.50
2022-08-04T13:15:17.966Z,25.40
2022-08-04T13:18:24.052Z,25.50
2022-08-04T13:21:50.558Z,25.40
2022-08-04T13:25:18.507Z,25.50
2022-08-04T13:28:20.955Z,25.50
2022-08-04T13:31:27.734Z,25.20
2022-08-04T13:40:45.628Z,25.80
2022-08-04T13:44:17.470Z,25.70
2022-08-04T13:47:21.672Z,25.60
2022-08-04T13:50:26.612Z,25.50
2022-08-04T13:53:31.296Z,25.60
2022-08-04T13:56:37.672Z,25.60
2022-08-04T13:59:42.813Z,25.60
2022-08-04T14:02:49.220Z,25.80
2022-08-04T14:06:09.622Z,25.70
2022-08-04T14:09:14.951Z,25.70
2022-08-04T14:12:38.834Z,25.70
2022-08-04T14:16:01.056Z,25.70
2022-08-04T14:19:02.572Z,25.70
2022-08-04T14:22:04.309Z,25.70
2022-08-04T14:25:15.817Z,25.80
2022-08-04T14:28:41.405Z,25.70
2022-08-04T14:31:59.440Z,25.80
2022-08-04T14:35:10.498Z,25.80
2022-08-04T14:38:12.298Z,25.80
2022-08-04T14:41:15.306Z,25.70
2022-08-04T14:44:17.447Z,25.80
2022-08-04T14:47:19.126Z,25.80
2022-08-04T14:50:33.458Z,25.90
2022-08-04T14:53:37.167Z,25.90
2022-08-04T14:56:47.509Z,25.90
2022-08-04T14:59:59.535Z,25.90
2022-08-04T15:03:07.735Z,26.00
2022-08-04T15:06:15.197Z,26.00
2022-08-04T15:09:22.625Z,26.00
2022-08-04T15:12:24.625Z,25.90
2022-08-04T15:15:36.673Z,26.00
2022-08-04T15:18:40.153Z,25.90
2022-08-04T15:21:43.102Z,26.00
2022-08-04T15:24:44.693Z,25.90
2022-08-04T15:27:54.678Z,25.90
2022-08-04T15:30:56.252Z,25.90
2022-08-04T15:33:58.183Z,25.80
2022-08-04T15:37:06.101Z,25.90
2022-08-04T15:40:11.426Z,25.90
2022-08-04T15:43:29.521Z,25.90
2022-08-04T15:47:09.677Z,26.00
2022-08-04T15:50:13.010Z,26.50
2022-08-04T15:53:15.247Z,25.90
2022-08-04T15:56:43.729Z,25.90
2022-08-04T15:59:59.630Z,25.90
2022-08-04T16:03:01.114Z,26.00
2022-08-04T16:06:36.771Z,25.90
2022-08-04T16:09:45.164Z,25.90
2022-08-04T16:12:55.019Z,25.90
2022-08-04T16:16:03.286Z,25.90
2022-08-04T16:19:06.381Z,25.90
2022-08-04T16:22:12.830Z,25.90
2022-08-04T16:25:15.017Z,25.90
2022-08-04T16:28:42.097Z,25.90
2022-08-04T16:32:06.819Z,25.90
2022-08-04T16:35:26.026Z,25.90
2022-08-04T16:38:27.656Z,25.90
2022-08-04T16:41:39.745Z,25.80
2022-08-04T16:44:53.026Z,25.90
2022-08-04T16:48:01.718Z,25.80
2022-08-04T16:51:06.063Z,25.70
2022-08-04T16:54:07.644Z,25.70
2022-08-04T16:57:10.366Z,25.80
2022-08-04T17:00:12.315Z,25.80
2022-08-04T17:03:14.024Z,25.80
2022-08-04T17:06:16.442Z,25.80
2022-08-04T17:09:19.660Z,25.70
2022-08-04T17:12:31.212Z,25.60
2022-08-04T17:15:32.664Z,25.70
2022-08-04T17:18:36.952Z,25.60
2022-08-04T17:21:39.371Z,25.50
2022-08-04T17:24:41.273Z,25.70
2022-08-04T17:28:09.347Z,25.50
2022-08-04T17:31:10.215Z,25.60
2022-08-04T17:34:16.745Z,25.60
2022-08-04T17:37:51.923Z,25.50
2022-08-04T17:40:57.212Z,25.50
2022-08-04T17:44:06.453Z,25.40
2022-08-04T17:47:16.689Z,25.50
2022-08-04T17:50:25.141Z,25.50
2022-08-04T17:54:03.074Z,25.40
2022-08-04T17:56:57.128Z,25.40
2022-08-04T18:00:04.648Z,25.40
2022-08-04T18:03:23.158Z,25.40
2022-08-04T18:06:26.023Z,25.40
2022-08-04T18:10:02.079Z,25.50
2022-08-04T18:12:52.477Z,25.30
2022-08-04T18:16:03.038Z,25.20
2022-08-04T18:19:08.585Z,25.30
2022-08-04T18:22:16.690Z,25.30
2022-08-04T18:25:50.596Z,25.30
2022-08-04T18:28:51.044Z,25.30
2022-08-04T18:31:53.114Z,25.30
2022-08-04T18:34:55.414Z,25.30
2022-08-04T18:38:06.131Z,25.30
2022-08-04T18:41:18.228Z,25.30
2022-08-04T18:44:20.443Z,25.20
2022-08-04T18:47:58.509Z,25.10
2022-08-04T18:51:09.071Z,25.10
2022-08-04T18:54:13.075Z,25.00
2022-08-04T18:57:32.838Z,25.00
2022-08-04T19:00:45.345Z,25.10
2022-08-04T19:03:54.622Z,25.00
2022-08-04T19:07:24.600Z,25.10
2022-08-04T19:10:26.946Z,25.00
2022-08-04T19:13:29.753Z,25.20
2022-08-04T19:16:37.173Z,25.00
2022-08-04T19:19:49.632Z,24.90
2022-08-04T19:24:10.269Z,25.10
2022-08-04T19:26:23.738Z,25.00
2022-08-04T19:29:37.450Z,25.00
2022-08-04T19:32:39.709Z,25.00
2022-08-04T19:35:46.035Z,25.10
2022-08-04T19:38:52.585Z,25.00
2022-08-04T19:42:04.848Z,25.00
2022-08-04T19:45:09.177Z,25.00
2022-08-04T19:48:19.424Z,25.10
2022-08-04T19:51:22.096Z,24.80
2022-08-04T19:54:27.441Z,24.90
2022-08-04T19:57:35.611Z,24.90
2022-08-04T20:00:39.814Z,24.80
2022-08-04T20:04:10.506Z,24.90
2022-08-04T20:07:12.445Z,24.90
2022-08-04T20:10:17.197Z,25.00
2022-08-04T20:13:37.364Z,24.90
2022-08-04T20:16:40.253Z,24.90
2022-08-04T20:19:41.795Z,24.90
2022-08-04T20:22:53.754Z,24.90
2022-08-04T20:25:55.321Z,24.80
2022-08-04T20:28:57.792Z,24.80
2022-08-04T20:32:05.670Z,24.80
2022-08-04T20:35:15.777Z,24.80
2022-08-04T20:38:32.734Z,24.80
2022-08-04T20:41:36.772Z,24.80
2022-08-04T20:44:38.562Z,24.70
2022-08-04T20:47:45.341Z,24.70
2022-08-04T20:50:55.341Z,24.70
2022-08-04T20:53:59.941Z,24.70
2022-08-04T20:57:02.394Z,24.70
2022-08-04T21:00:05.579Z,24.70
2022-08-04T21:03:07.028Z,24.70
2022-08-04T21:06:09.275Z,24.60
2022-08-04T21:09:15.518Z,24.60
2022-08-04T21:12:31.307Z,24.70
2022-08-04T21:15:57.914Z,24.60
2022-08-04T21:18:54.128Z,24.60
2022-08-04T21:21:59.140Z,24.70
2022-08-04T21:25:01.340Z,24.50
2022-08-04T21:28:04.478Z,24.60
2022-08-04T21:31:11.073Z,24.50
2022-08-04T21:34:36.730Z,24.40
2022-08-04T21:37:56.747Z,24.50
2022-08-04T21:41:03.436Z,24.50
2022-08-04T21:44:07.894Z,24.50
2022-08-04T21:47:23.417Z,24.60
2022-08-04T21:50:25.270Z,24.60
2022-08-04T21:53:32.155Z,24.60
2022-08-04T21:56:35.184Z,24.40
2022-08-04T21:59:45.252Z,24.50
2022-08-04T22:02:53.278Z,24.50
2022-08-04T22:05:55.542Z,24.50
2022-08-04T22:08:57.552Z,24.40
2022-08-04T22:11:59.713Z,24.50
2022-08-04T22:16:02.783Z,24.50
2022-08-04T22:18:28.376Z,24.50
2022-08-04T22:21:31.563Z,24.40
2022-08-04T22:24:40.791Z,24.50
2022-08-04T22:27:56.640Z,24.50
2022-08-04T22:31:23.179Z,24.50
2022-08-04T22:34:24.519Z,24.50
2022-08-04T22:37:36.158Z,24.50
2022-08-04T22:40:47.688Z,24.50
2022-08-04T22:43:55.550Z,24.50
2022-08-04T22:46:57.029Z,24.60
2022-08-04T22:50:27.154Z,24.50
2022-08-04T22:53:22.009Z,24.50
2022-08-04T22:56:37.852Z,24.50
2022-08-04T22:59:44.425Z,24.50
2022-08-04T23:02:50.207Z,24.50
2022-08-04T23:05:55.568Z,24.60
2022-08-04T23:08:57.075Z,24.60
2022-08-04T23:12:23.589Z,24.60
2022-08-04T23:15:20.728Z,24.50
2022-08-04T23:18:22.885Z,24.50
2022-08-04T23:21:28.165Z,24.50
2022-08-04T23:24:42.661Z,24.60
2022-08-04T23:27:50.705Z,24.70
2022-08-04T23:30:54.724Z,24.40
2022-08-04T23:33:58.174Z,24.70
2022-08-04T23:37:03.146Z,24.50
2022-08-04T23:40:28.250Z,24.60
2022-08-04T23:43:27.043Z,24.50
2022-08-04T23:46:53.385Z,24.50
2022-08-04T23:49:58.212Z,24.50
2022-08-04T23:52:59.872Z,24.60
2022-08-04T23:56:05.662Z,24.50
2022-08-04T23:59:18.002Z,24.50
